createdAt,value
2022-12-20T00:01:34.977Z,8.80
2022-12-20T00:04:05.721Z,8.80
2022-12-20T00:06:34.927Z,8.80
2022-12-20T00:09:03.976Z,8.80
2022-12-20T00:11:31.155Z,8.80
2022-12-20T00:13:58.748Z,8.80
2022-12-20T00:16:27.817Z,8.80
2022-12-20T00:19:05.532Z,8.80
2022-12-20T00:21:34.098Z,8.80
2022-12-20T00:24:01.627Z,8.80
2022-12-20T00:26:30.716Z,8.80
2022-12-20T00:28:58.218Z,8.80
2022-12-20T00:31:27.294Z,8.70
2022-12-20T00:33:56.436Z,8.70
2022-12-20T00:36:25.040Z,8.70
2022-12-20T00:38:54.184Z,8.70
2022-12-20T00:41:27.464Z,8.70
2022-12-20T00:43:55.269Z,8.70
2022-12-20T00:46:24.738Z,8.70
2022-12-20T00:48:53.694Z,8.70
2022-12-20T00:51:26.687Z,8.70
2022-12-20T00:53:54.457Z,8.70
2022-12-20T00:56:22.286Z,8.70
2022-12-20T00:58:49.647Z,8.70
2022-12-20T01:01:25.997Z,8.70
2022-12-20T01:03:54.428Z,8.70
2022-12-20T01:06:23.003Z,8.70
2022-12-20T01:08:50.051Z,8.70
2022-12-20T01:11:25.258Z,8.80
2022-12-20T01:13:56.049Z,8.70
2022-12-20T01:16:25.950Z,8.80
2022-12-20T01:18:54.623Z,8.70
2022-12-20T01:21:23.980Z,8.80
2022-12-20T01:23:51.189Z,8.80
2022-12-20T01:26:22.177Z,8.80
2022-12-20T01:28:53.710Z,8.80
2022-12-20T01:31:21.347Z,8.80
2022-12-20T01:33:50.368Z,8.80
2022-12-20T01:36:20.501Z,8.80
2022-12-20T01:38:47.878Z,8.80
2022-12-20T01:41:18.052Z,8.80
2022-12-20T01:43:48.779Z,8.80
2022-12-20T01:46:17.305Z,8.70
2022-12-20T01:49:10.910Z,8.70
2022-12-20T01:52:06.674Z,8.70
2022-12-20T01:55:00.822Z,8.70
2022-12-20T01:57:36.252Z,8.80
2022-12-20T02:00:05.272Z,8.80
2022-12-20T02:02:42.395Z,8.80
2022-12-20T02:05:11.538Z,8.80
2022-12-20T02:07:39.001Z,8.80
2022-12-20T02:10:07.690Z,8.80
2022-12-20T02:12:47.574Z,8.70
2022-12-20T02:15:23.550Z,8.70
2022-12-20T02:17:56.384Z,8.70
2022-12-20T02:20:35.041Z,8.70
2022-12-20T02:23:17.221Z,8.70
2022-12-20T02:26:15.910Z,8.60
2022-12-20T02:29:01.197Z,8.60
2022-12-20T02:31:34.593Z,8.60
2022-12-20T02:34:04.050Z,8.60
2022-12-20T02:36:31.047Z,8.60
2022-12-20T02:38:58.093Z,8.60
2022-12-20T02:41:32.257Z,8.70
2022-12-20T02:44:33.105Z,8.60
2022-12-20T02:47:02.969Z,8.60
2022-12-20T02:49:34.288Z,8.60
2022-12-20T02:52:02.764Z,8.60
2022-12-20T02:54:30.282Z,8.60
2022-12-20T02:57:04.948Z,8.60
2022-12-20T02:59:55.714Z,8.60
2022-12-20T03:02:24.655Z,8.60
2022-12-20T03:04:53.479Z,8.60
2022-12-20T03:07:21.163Z,8.60
2022-12-20T03:09:48.443Z,8.60
2022-12-20T03:12:18.727Z,8.60
2022-12-20T03:14:45.774Z,8.60
2022-12-20T03:17:14.394Z,8.60
2022-12-20T03:19:42.280Z,8.50
2022-12-20T03:22:09.356Z,8.50
2022-12-20T03:24:36.535Z,8.50
2022-12-20T03:27:09.144Z,8.50
2022-12-20T03:29:36.433Z,8.50
2022-12-20T03:32:03.587Z,8.50
2022-12-20T03:34:30.512Z,8.60
2022-12-20T03:36:57.833Z,8.60
2022-12-20T03:39:24.840Z,8.60
2022-12-20T03:41:54.103Z,8.60
2022-12-20T03:44:21.440Z,8.60
2022-12-20T03:46:50.272Z,8.60
2022-12-20T03:49:17.592Z,8.60
2022-12-20T03:51:48.898Z,8.60
2022-12-20T03:54:16.001Z,8.60
2022-12-20T03:57:01.535Z,8.60
2022-12-20T03:59:29.018Z,8.60
2022-12-20T04:01:56.422Z,8.60
2022-12-20T04:04:23.674Z,8.50
2022-12-20T04:06:50.619Z,8.50
2022-12-20T04:09:17.600Z,8.50
2022-12-20T04:11:49.276Z,8.50
2022-12-20T04:14:16.737Z,8.60
2022-12-20T04:16:44.615Z,8.60
2022-12-20T04:19:12.136Z,8.60
2022-12-20T04:21:43.354Z,8.60
2022-12-20T04:24:11.917Z,8.60
2022-12-20T04:26:51.182Z,8.60
2022-12-20T04:29:18.332Z,8.60
2022-12-20T04:31:46.480Z,8.60
2022-12-20T04:34:13.556Z,8.60
2022-12-20T04:36:40.537Z,8.60
2022-12-20T04:39:13.935Z,8.70
2022-12-20T04:42:06.840Z,8.60
2022-12-20T04:44:33.852Z,8.60
2022-12-20T04:47:00.978Z,8.60
2022-12-20T04:49:29.093Z,8.60
2022-12-20T04:52:16.091Z,8.60
2022-12-20T04:54:43.095Z,8.60
2022-12-20T04:57:16.678Z,8.60
2022-12-20T04:59:43.703Z,8.70
2022-12-20T05:02:13.156Z,8.70
2022-12-20T05:04:49.062Z,8.70
2022-12-20T05:07:17.058Z,8.70
2022-12-20T05:09:50.339Z,8.70
2022-12-20T05:12:17.309Z,8.70
2022-12-20T05:14:45.215Z,8.70
2022-12-20T05:17:13.914Z,8.70
2022-12-20T05:19:40.962Z,8.70
2022-12-20T05:22:27.505Z,8.60
2022-12-20T05:25:28.436Z,8.60
2022-12-20T05:27:58.175Z,8.60
2022-12-20T05:30:27.873Z,8.60
2022-12-20T05:32:55.229Z,8.60
2022-12-20T05:35:22.383Z,8.60
2022-12-20T05:37:55.183Z,8.60
2022-12-20T05:40:22.508Z,8.60
2022-12-20T05:42:50.385Z,8.60
2022-12-20T05:45:18.225Z,8.60
2022-12-20T05:47:53.548Z,8.50
2022-12-20T05:50:20.666Z,8.50
2022-12-20T05:53:11.671Z,8.50
2022-12-20T05:55:49.772Z,8.60
2022-12-20T05:58:17.415Z,8.50
2022-12-20T06:00:53.866Z,8.60
2022-12-20T06:03:22.350Z,8.60
2022-12-20T06:06:13.937Z,8.50
2022-12-20T06:08:41.593Z,8.60
2022-12-20T06:11:12.974Z,8.50
2022-12-20T06:13:49.297Z,8.50
2022-12-20T06:16:16.390Z,8.50
2022-12-20T06:18:43.706Z,8.50
2022-12-20T06:21:12.252Z,8.50
2022-12-20T06:23:39.354Z,8.50
2022-12-20T06:26:09.615Z,8.40
2022-12-20T06:28:46.017Z,8.50
2022-12-20T06:31:14.399Z,8.50
2022-12-20T06:33:44.922Z,8.50
2022-12-20T06:36:14.875Z,8.40
2022-12-20T06:38:42.676Z,8.50
2022-12-20T06:41:09.929Z,8.40
2022-12-20T06:43:37.519Z,8.50
2022-12-20T06:46:04.610Z,8.50
2022-12-20T06:48:31.689Z,8.50
2022-12-20T06:50:59.365Z,8.50
2022-12-20T06:53:27.859Z,8.50
2022-12-20T06:55:54.855Z,8.50
2022-12-20T06:58:22.369Z,8.50
2022-12-20T07:00:49.689Z,8.50
2022-12-20T07:03:16.863Z,8.50
2022-12-20T07:05:43.974Z,8.50
2022-12-20T07:08:11.016Z,8.50
2022-12-20T07:10:38.184Z,8.40
2022-12-20T07:13:05.282Z,8.50
2022-12-20T07:15:32.880Z,8.50
2022-12-20T07:17:59.855Z,8.50
2022-12-20T07:20:26.948Z,8.50
2022-12-20T07:22:53.989Z,8.50
2022-12-20T07:25:21.062Z,8.50
2022-12-20T07:27:52.209Z,8.50
2022-12-20T07:30:20.288Z,8.50
2022-12-20T07:32:47.890Z,8.50
2022-12-20T07:35:15.641Z,8.60
2022-12-20T07:37:42.671Z,8.60
2022-12-20T07:40:11.099Z,8.50
2022-12-20T07:42:42.863Z,8.60
2022-12-20T07:45:15.620Z,8.60
2022-12-20T07:47:43.762Z,8.60
2022-12-20T07:50:11.857Z,8.60
2022-12-20T07:52:42.696Z,8.60
2022-12-20T07:55:10.918Z,8.60
2022-12-20T07:57:51.703Z,8.60
2022-12-20T08:00:19.189Z,8.60
2022-12-20T08:03:04.555Z,8.60
2022-12-20T08:05:33.576Z,8.60
2022-12-20T08:08:02.874Z,8.60
2022-12-20T08:10:31.051Z,8.60
2022-12-20T08:12:59.284Z,8.60
2022-12-20T08:15:28.039Z,8.60
2022-12-20T08:17:55.029Z,8.60
2022-12-20T08:20:22.066Z,8.60
2022-12-20T08:22:49.142Z,8.70
2022-12-20T08:25:16.243Z,8.70
2022-12-20T08:27:43.368Z,8.70
2022-12-20T08:30:11.287Z,8.70
2022-12-20T08:32:38.388Z,8.70
2022-12-20T08:35:06.279Z,8.80
2022-12-20T08:37:33.608Z,8.80
2022-12-20T08:40:00.942Z,8.80
2022-12-20T08:42:28.327Z,8.80
2022-12-20T08:44:56.199Z,8.70
2022-12-20T08:47:36.631Z,8.70
2022-12-20T08:50:04.908Z,8.70
2022-12-20T08:52:32.163Z,8.70
2022-12-20T08:55:01.446Z,8.70
2022-12-20T08:57:29.136Z,8.70
2022-12-20T08:59:56.111Z,8.70
2022-12-20T09:02:23.339Z,8.70
2022-12-20T09:04:50.600Z,8.70
2022-12-20T09:07:17.635Z,8.80
2022-12-20T09:09:46.300Z,8.80
2022-12-20T09:12:13.188Z,8.70
2022-12-20T09:14:40.193Z,8.80
2022-12-20T09:17:07.178Z,8.70
2022-12-20T09:19:34.202Z,8.80
2022-12-20T09:22:01.114Z,8.80
2022-12-20T09:24:28.112Z,8.80
2022-12-20T09:26:55.058Z,8.80
2022-12-20T09:29:27.290Z,8.80
2022-12-20T09:31:56.655Z,8.80
2022-12-20T09:34:23.771Z,8.80
2022-12-20T09:36:52.106Z,8.70
2022-12-20T09:39:19.105Z,8.80
2022-12-20T09:41:46.440Z,8.70
2022-12-20T09:44:19.195Z,8.70
2022-12-20T09:46:55.834Z,8.80
2022-12-20T09:49:31.564Z,8.80
2022-12-20T09:52:23.127Z,8.80
2022-12-20T09:55:04.804Z,8.80
2022-12-20T09:57:43.802Z,8.80
2022-12-20T10:00:16.456Z,8.80
2022-12-20T10:02:58.831Z,8.80
2022-12-20T10:05:41.769Z,8.80
2022-12-20T10:08:38.002Z,8.90
2022-12-20T10:11:40.679Z,8.90
2022-12-20T10:14:40.059Z,9.00
2022-12-20T10:17:42.959Z,9.00
2022-12-20T10:20:36.146Z,9.00
2022-12-20T10:23:29.437Z,9.10
2022-12-20T10:26:01.706Z,9.10
2022-12-20T10:28:34.095Z,9.10
2022-12-20T10:31:03.323Z,9.10
2022-12-20T10:33:31.711Z,9.10
2022-12-20T10:36:22.015Z,9.10
2022-12-20T10:38:51.867Z,9.10
2022-12-20T10:41:23.379Z,9.20
2022-12-20T10:44:04.327Z,9.20
2022-12-20T10:46:39.171Z,9.20
2022-12-20T10:49:21.432Z,9.20
2022-12-20T10:51:53.653Z,9.20
2022-12-20T10:54:24.673Z,9.30
2022-12-20T10:57:00.354Z,9.30
2022-12-20T10:59:39.650Z,9.30
2022-12-20T11:02:33.206Z,9.40
2022-12-20T11:05:11.974Z,9.40
2022-12-20T11:10:47.842Z,9.50
2022-12-20T11:13:26.215Z,9.50
2022-12-20T11:15:57.432Z,9.50
2022-12-20T11:18:56.007Z,9.60
2022-12-20T11:21:44.815Z,9.60
2022-12-20T11:24:33.094Z,9.60
2022-12-20T11:27:18.011Z,9.60
2022-12-20T11:29:50.908Z,9.60
2022-12-20T11:32:48.863Z,9.60
2022-12-20T11:35:19.480Z,9.60
2022-12-20T11:38:14.704Z,9.60
2022-12-20T11:41:04.869Z,9.60
2022-12-20T11:44:15.311Z,9.60
2022-12-20T11:46:45.334Z,9.70
2022-12-20T11:49:31.454Z,9.70
2022-12-20T11:52:13.785Z,9.70
2022-12-20T11:54:40.675Z,9.70
2022-12-20T11:57:17.125Z,9.70
2022-12-20T11:59:53.384Z,9.70
2022-12-20T12:02:38.503Z,9.70
2022-12-20T12:05:41.513Z,9.70
2022-12-20T12:08:18.433Z,9.70
2022-12-20T12:11:04.346Z,9.70
2022-12-20T12:13:35.347Z,9.80
2022-12-20T12:16:22.924Z,9.80
2022-12-20T12:18:49.990Z,9.80
2022-12-20T12:21:24.821Z,9.80
2022-12-20T12:24:08.516Z,9.80
2022-12-20T12:26:39.590Z,9.80
2022-12-20T12:29:09.265Z,9.80
2022-12-20T12:31:51.124Z,9.80
2022-12-20T12:34:18.083Z,9.80
2022-12-20T12:37:23.035Z,9.80
2022-12-20T12:39:56.065Z,9.80
2022-12-20T12:42:42.789Z,9.80
2022-12-20T12:45:53.035Z,9.80
2022-12-20T12:48:41.910Z,9.80
2022-12-20T12:51:10.490Z,9.80
2022-12-20T12:53:52.854Z,9.80
2022-12-20T12:56:43.224Z,9.80
2022-12-20T12:59:14.289Z,9.80
2022-12-20T13:02:17.614Z,9.80
2022-12-20T13:04:54.438Z,9.80
2022-12-20T13:07:32.952Z,9.80
2022-12-20T13:10:01.876Z,9.80
2022-12-20T13:12:37.766Z,9.80
2022-12-20T13:15:19.888Z,9.70
2022-12-20T13:18:20.660Z,9.70
2022-12-20T13:21:36.893Z,9.70
2022-12-20T13:24:34.824Z,9.70
2022-12-20T13:27:03.458Z,9.70
2022-12-20T13:29:35.621Z,9.70
2022-12-20T13:32:03.333Z,9.70
2022-12-20T13:34:57.329Z,9.60
2022-12-20T13:38:02.053Z,9.60
2022-12-20T13:40:35.343Z,9.60
2022-12-20T13:43:20.399Z,9.60
2022-12-20T13:45:54.778Z,9.60
2022-12-20T13:48:36.368Z,9.60
2022-12-20T13:51:03.615Z,9.60
2022-12-20T13:53:31.342Z,9.60
2022-12-20T13:55:58.359Z,9.60
2022-12-20T13:58:30.582Z,9.60
2022-12-20T14:01:07.249Z,9.70
2022-12-20T14:03:40.426Z,9.70
2022-12-20T14:06:11.536Z,9.70
2022-12-20T14:08:43.260Z,9.70
2022-12-20T14:11:22.662Z,9.70
2022-12-20T14:14:01.238Z,9.70
2022-12-20T14:16:31.024Z,9.70
2022-12-20T14:18:58.001Z,9.80
2022-12-20T14:21:25.887Z,9.80
2022-12-20T14:23:56.773Z,9.80
2022-12-20T14:26:33.909Z,9.80
2022-12-20T14:29:01.530Z,9.80
2022-12-20T14:31:41.085Z,9.80
2022-12-20T14:34:10.838Z,9.80
2022-12-20T14:36:46.286Z,9.80
2022-12-20T14:39:34.189Z,9.80
2022-12-20T14:42:21.477Z,9.80
2022-12-20T14:44:48.583Z,9.80
2022-12-20T14:47:21.298Z,9.80
2022-12-20T14:50:18.583Z,9.80
2022-12-20T14:52:46.107Z,9.80
2022-12-20T14:55:37.664Z,9.80
2022-12-20T14:58:24.499Z,9.80
2022-12-20T15:01:01.592Z,9.80
2022-12-20T15:03:29.219Z,9.80
2022-12-20T15:06:00.544Z,9.80
2022-12-20T15:08:35.300Z,9.70
2022-12-20T15:11:06.476Z,9.70
2022-12-20T15:13:39.870Z,9.70
2022-12-20T15:16:22.566Z,9.70
2022-12-20T15:19:02.063Z,9.70
2022-12-20T15:21:30.882Z,9.60
2022-12-20T15:24:00.933Z,9.60
2022-12-20T15:26:31.046Z,9.60
2022-12-20T15:28:58.170Z,9.60
2022-12-20T15:31:33.068Z,9.60
2022-12-20T15:34:03.616Z,9.60
2022-12-20T15:36:31.152Z,9.60
2022-12-20T15:39:15.383Z,9.50
2022-12-20T15:41:48.712Z,9.50
2022-12-20T15:44:21.689Z,9.50
2022-12-20T15:46:49.304Z,9.50
2022-12-20T15:49:22.507Z,9.50
2022-12-20T15:51:51.142Z,9.50
2022-12-20T15:54:21.760Z,9.50
2022-12-20T15:56:49.052Z,9.50
2022-12-20T15:59:48.751Z,9.50
2022-12-20T16:02:03.503Z,9.50
2022-12-20T16:04:30.644Z,9.50
2022-12-20T16:06:57.683Z,9.50
2022-12-20T16:09:25.992Z,9.50
2022-12-20T16:11:53.286Z,9.50
2022-12-20T16:14:21.559Z,9.50
2022-12-20T16:16:50.123Z,9.50
2022-12-20T16:19:17.679Z,9.50
2022-12-20T16:21:50.780Z,9.50
2022-12-20T16:24:20.602Z,9.50
2022-12-20T16:26:50.393Z,9.50
2022-12-20T16:29:17.305Z,9.50
2022-12-20T16:31:44.614Z,9.50
2022-12-20T16:34:18.790Z,9.50
2022-12-20T16:36:46.898Z,9.50
2022-12-20T16:39:13.912Z,9.50
2022-12-20T16:41:43.635Z,9.50
2022-12-20T16:44:15.577Z,9.50
2022-12-20T16:46:42.693Z,9.40
2022-12-20T16:49:19.467Z,9.40
2022-12-20T16:51:48.694Z,9.40
2022-12-20T16:54:21.595Z,9.40
2022-12-20T16:56:57.406Z,9.40
2022-12-20T16:59:25.338Z,9.40
2022-12-20T17:01:55.538Z,9.40
2022-12-20T17:04:24.006Z,9.40
2022-12-20T17:06:51.215Z,9.40
2022-12-20T17:09:19.291Z,9.40
2022-12-20T17:11:46.691Z,9.40
2022-12-20T17:14:13.876Z,9.40
2022-12-20T17:16:41.528Z,9.40
2022-12-20T17:19:10.737Z,9.40
2022-12-20T17:24:32.086Z,9.40
2022-12-20T17:27:00.142Z,9.40
2022-12-20T17:29:27.205Z,9.40
2022-12-20T17:31:54.353Z,9.40
2022-12-20T17:34:30.269Z,9.40
2022-12-20T17:36:58.089Z,9.40
2022-12-20T17:39:26.005Z,9.40
2022-12-20T17:41:54.646Z,9.50
2022-12-20T17:44:24.064Z,9.40
2022-12-20T17:46:52.168Z,9.40
2022-12-20T17:49:20.041Z,9.40
2022-12-20T17:51:47.293Z,9.40
2022-12-20T17:54:40.103Z,9.40
2022-12-20T17:57:16.629Z,9.40
2022-12-20T17:59:44.252Z,9.40
2022-12-20T18:02:25.331Z,9.40
2022-12-20T18:04:52.649Z,9.40
2022-12-20T18:07:19.922Z,9.40
2022-12-20T18:09:48.382Z,9.40
2022-12-20T18:12:15.615Z,9.40
2022-12-20T18:14:42.609Z,9.40
2022-12-20T18:17:09.693Z,9.40
2022-12-20T18:19:36.720Z,9.40
2022-12-20T18:22:04.811Z,9.30
2022-12-20T18:24:32.240Z,9.30
2022-12-20T18:26:59.292Z,9.30
2022-12-20T18:29:26.346Z,9.40
2022-12-20T18:31:53.331Z,9.40
2022-12-20T18:34:20.544Z,9.40
2022-12-20T18:36:47.651Z,9.30
2022-12-20T18:39:14.751Z,9.40
2022-12-20T18:41:43.061Z,9.40
2022-12-20T18:44:11.395Z,9.40
2022-12-20T18:46:38.415Z,9.40
2022-12-20T18:49:05.579Z,9.40
2022-12-20T18:51:38.002Z,9.40
2022-12-20T18:54:07.869Z,9.40
2022-12-20T18:56:37.828Z,9.40
2022-12-20T18:59:11.420Z,9.40
2022-12-20T19:01:41.050Z,9.30
2022-12-20T19:04:08.712Z,9.30
2022-12-20T19:06:36.554Z,9.30
2022-12-20T19:09:05.998Z,9.30
2022-12-20T19:11:33.701Z,9.20
2022-12-20T19:14:00.937Z,9.20
2022-12-20T19:16:31.814Z,9.20
2022-12-20T19:19:00.736Z,9.20
2022-12-20T19:21:34.188Z,9.20
2022-12-20T19:24:05.264Z,9.20
2022-12-20T19:26:33.487Z,9.20
2022-12-20T19:29:00.585Z,9.20
2022-12-20T19:31:30.371Z,9.30
2022-12-20T19:34:03.643Z,9.30
2022-12-20T19:36:35.663Z,9.20
2022-12-20T19:39:05.429Z,9.20
2022-12-20T19:41:33.591Z,9.20
2022-12-20T19:44:01.203Z,9.20
2022-12-20T19:46:29.830Z,9.20
2022-12-20T19:48:58.601Z,9.20
2022-12-20T19:51:26.967Z,9.20
2022-12-20T19:53:55.322Z,9.20
2022-12-20T19:56:28.103Z,9.20
2022-12-20T19:58:55.688Z,9.20
2022-12-20T20:01:26.232Z,9.20
2022-12-20T20:03:54.677Z,9.30
2022-12-20T20:06:22.559Z,9.30
2022-12-20T20:08:50.124Z,9.30
2022-12-20T20:11:19.069Z,9.30
2022-12-20T20:13:46.369Z,9.30
2022-12-20T20:16:19.973Z,9.30
2022-12-20T20:18:49.268Z,9.30
2022-12-20T20:21:20.958Z,9.30
2022-12-20T20:23:49.224Z,9.30
2022-12-20T20:26:21.488Z,9.40
2022-12-20T20:28:48.728Z,9.30
2022-12-20T20:31:17.083Z,9.30
2022-12-20T20:33:44.474Z,9.30
2022-12-20T20:36:14.662Z,9.30
2022-12-20T20:38:41.783Z,9.30
2022-12-20T20:41:09.580Z,9.30
2022-12-20T20:43:37.944Z,9.30
2022-12-20T20:46:08.738Z,9.30
2022-12-20T20:48:36.447Z,9.20
2022-12-20T20:51:04.420Z,9.30
2022-12-20T20:53:34.138Z,9.30
2022-12-20T20:56:05.767Z,9.30
2022-12-20T20:58:34.243Z,9.30
2022-12-20T21:01:03.061Z,9.30
2022-12-20T21:03:31.897Z,9.20
2022-12-20T21:06:36.576Z,9.20
2022-12-20T21:08:46.453Z,9.20
2022-12-20T21:11:13.741Z,9.20
2022-12-20T21:13:41.079Z,9.20
2022-12-20T21:16:13.773Z,9.20
2022-12-20T21:18:40.961Z,9.20
2022-12-20T21:21:10.583Z,9.20
2022-12-20T21:23:38.784Z,9.20
2022-12-20T21:26:07.588Z,9.10
2022-12-20T21:28:35.591Z,9.10
2022-12-20T21:31:05.439Z,9.10
2022-12-20T21:33:32.779Z,9.10
2022-12-20T21:36:08.821Z,9.10
2022-12-20T21:38:36.224Z,9.20
2022-12-20T21:41:13.415Z,9.10
2022-12-20T21:43:40.680Z,9.10
2022-12-20T21:46:11.639Z,9.10
2022-12-20T21:48:39.857Z,9.10
2022-12-20T21:51:15.479Z,9.10
2022-12-20T21:53:45.303Z,9.10
2022-12-20T21:56:13.220Z,9.10
2022-12-20T21:58:40.222Z,9.10
2022-12-20T22:01:08.360Z,9.10
2022-12-20T22:03:36.814Z,9.10
2022-12-20T22:06:05.145Z,9.00
2022-12-20T22:08:33.539Z,9.00
2022-12-20T22:11:06.561Z,9.00
2022-12-20T22:13:40.752Z,9.00
2022-12-20T22:16:15.308Z,8.90
2022-12-20T22:18:43.435Z,9.00
2022-12-20T22:21:12.632Z,9.00
2022-12-20T22:23:40.605Z,9.00
2022-12-20T22:26:13.188Z,9.00
2022-12-20T22:28:44.829Z,9.00
2022-12-20T22:31:11.908Z,9.00
2022-12-20T22:33:39.414Z,9.00
2022-12-20T22:36:08.639Z,9.00
2022-12-20T22:38:35.916Z,9.00
2022-12-20T22:41:17.344Z,9.10
2022-12-20T22:43:45.636Z,9.10
2022-12-20T22:46:28.982Z,9.10
2022-12-20T22:48:56.966Z,9.10
2022-12-20T22:51:31.680Z,9.10
2022-12-20T22:53:59.502Z,9.10
2022-12-20T22:56:26.841Z,9.10
2022-12-20T22:58:53.835Z,9.10
2022-12-20T23:01:21.478Z,9.10
2022-12-20T23:03:49.041Z,9.20
2022-12-20T23:06:20.130Z,9.20
2022-12-20T23:08:47.861Z,9.20
2022-12-20T23:11:40.163Z,9.20
2022-12-20T23:14:32.692Z,9.20
2022-12-20T23:17:01.112Z,9.20
2022-12-20T23:19:28.375Z,9.20
2022-12-20T23:22:14.104Z,9.20
2022-12-20T23:24:41.031Z,9.20
2022-12-20T23:27:07.960Z,9.20
2022-12-20T23:29:34.984Z,9.20
2022-12-20T23:32:01.996Z,9.20
2022-12-20T23:34:29.093Z,9.10
2022-12-20T23:36:56.036Z,9.10
2022-12-20T23:39:23.020Z,9.10
2022-12-20T23:41:49.942Z,9.10
2022-12-20T23:44:16.965Z,9.10
2022-12-20T23:46:43.816Z,9.10
2022-12-20T23:49:10.911Z,9.10
2022-12-20T23:51:37.778Z,9.10
2022-12-20T23:54:04.839Z,9.00
2022-12-20T23:56:31.827Z,9.00
2022-12-20T23:58:58.743Z,9.00
